sensor_id;sensor_type;location;lat;lon;timestamp;temperature;humidity
23207;DHT22;11773;52.570;13.052;2023-07-22T00:01:06;16.90;99.90
23207;DHT22;11773;52.570;13.052;2023-07-22T00:03:36;16.90;99.90
23207;DHT22;11773;52.570;13.052;2023-07-22T00:06:09;16.80;99.90
23207;DHT22;11773;52.570;13.052;2023-07-22T00:08:39;16.80;99.90
23207;DHT22;11773;52.570;13.052;2023-07-22T00:11:09;16.80;99.90
23207;DHT22;11773;52.570;13.052;2023-07-22T00:13:38;16.90;99.90
23207;DHT22;11773;52.570;13.052;2023-07-22T00:16:08;16.90;99.90
23207;DHT22;11773;52.570;13.052;2023-07-22T00:18:38;17.00;99.90
23207;DHT22;11773;52.570;13.052;2023-07-22T00:21:08;17.00;99.90
23207;DHT22;11773;52.570;13.052;2023-07-22T00:23:38;16.90;99.90
23207;DHT22;11773;52.570;13.052;2023-07-22T00:26:08;16.70;99.90
23207;DHT22;11773;52.570;13.052;2023-07-22T00:28:38;16.80;99.90
23207;DHT22;11773;52.570;13.052;2023-07-22T00:31:08;16.90;99.90
23207;DHT22;11773;52.570;13.052;2023-07-22T00:33:37;17.00;99.90
23207;DHT22;11773;52.570;13.052;2023-07-22T00:36:07;17.10;99.90
23207;DHT22;11773;52.570;13.052;2023-07-22T00:38:37;17.10;99.90
23207;DHT22;11773;52.570;13.052;2023-07-22T00:41:07;17.10;99.90
23207;DHT22;11773;52.570;13.052;2023-07-22T00:43:38;17.20;99.90
23207;DHT22;11773;52.570;13.052;2023-07-22T00:46:07;17.20;99.90
23207;DHT22;11773;52.570;13.052;2023-07-22T00:48:38;17.20;99.90
23207;DHT22;11773;52.570;13.052;2023-07-22T00:51:08;17.20;99.90
23207;DHT22;11773;52.570;13.052;2023-07-22T00:53:38;17.20;99.90
23207;DHT22;11773;52.570;13.052;2023-07-22T00:56:08;17.20;99.90
23207;DHT22;11773;52.570;13.052;2023-07-22T00:58:37;17.20;99.90
23207;DHT22;11773;52.570;13.052;2023-07-22T01:01:07;17.30;99.90
23207;DHT22;11773;52.570;13.052;2023-07-22T01:03:37;17.30;99.90
23207;DHT22;11773;52.570;13.052;2023-07-22T01:06:07;17.20;99.90
23207;DHT22;11773;52.570;13.052;2023-07-22T01:08:39;17.30;99.90
23207;DHT22;11773;52.570;13.052;2023-07-22T01:11:08;17.20;99.90
23207;DHT22;11773;52.570;13.052;2023-07-22T01:13:39;17.20;99.90
23207;DHT22;11773;52.570;13.052;2023-07-22T01:16:08;17.30;99.90
23207;DHT22;11773;52.570;13.052;2023-07-22T01:18:38;17.30;99.90
23207;DHT22;11773;52.570;13.052;2023-07-22T01:21:08;17.30;99.90
23207;DHT22;11773;52.570;13.052;2023-07-22T01:23:40;17.30;99.90
23207;DHT22;11773;52.570;13.052;2023-07-22T01:26:19;17.30;99.90
23207;DHT22;11773;52.570;13.052;2023-07-22T01:28:48;17.20;99.90
23207;DHT22;11773;52.570;13.052;2023-07-22T01:31:18;17.30;99.90
23207;DHT22;11773;52.570;13.052;2023-07-22T01:33:48;17.20;99.90
23207;DHT22;11773;52.570;13.052;2023-07-22T01:36:17;17.30;99.90
23207;DHT22;11773;52.570;13.052;2023-07-22T01:38:47;17.20;99.90
23207;DHT22;11773;52.570;13.052;2023-07-22T01:41:16;17.20;99.90
23207;DHT22;11773;52.570;13.052;2023-07-22T01:43:46;16.90;99.90
23207;DHT22;11773;52.570;13.052;2023-07-22T01:46:16;16.90;99.90
23207;DHT22;11773;52.570;13.052;2023-07-22T01:48:46;17.00;99.90
23207;DHT22;11773;52.570;13.052;2023-07-22T01:51:15;17.00;99.90
23207;DHT22;11773;52.570;13.052;2023-07-22T01:53:45;17.00;99.90
23207;DHT22;11773;52.570;13.052;2023-07-22T01:56:15;16.80;99.90
23207;DHT22;11773;52.570;13.052;2023-07-22T01:58:45;16.80;99.90
23207;DHT22;11773;52.570;13.052;2023-07-22T02:01:14;16.80;99.90
23207;DHT22;11773;52.570;13.052;2023-07-22T02:03:45;16.80;99.90
23207;DHT22;11773;52.570;13.052;2023-07-22T02:06:14;16.60;99.90
23207;DHT22;11773;52.570;13.052;2023-07-22T02:08:44;16.70;99.90
23207;DHT22;11773;52.570;13.052;2023-07-22T02:11:14;16.80;99.90
23207;DHT22;11773;52.570;13.052;2023-07-22T02:13:43;16.80;99.90
23207;DHT22;11773;52.570;13.052;2023-07-22T02:16:13;16.80;99.90
23207;DHT22;11773;52.570;13.052;2023-07-22T02:18:44;16.80;99.90
23207;DHT22;11773;52.570;13.052;2023-07-22T02:21:15;16.70;99.90
23207;DHT22;11773;52.570;13.052;2023-07-22T02:23:44;16.50;99.90
23207;DHT22;11773;52.570;13.052;2023-07-22T02:26:14;16.70;99.90
23207;DHT22;11773;52.570;13.052;2023-07-22T02:28:44;16.70;99.90
23207;DHT22;11773;52.570;13.052;2023-07-22T02:31:14;16.70;99.90
23207;DHT22;11773;52.570;13.052;2023-07-22T02:33:44;16.80;99.90
23207;DHT22;11773;52.570;13.052;2023-07-22T02:36:14;16.70;99.90
23207;DHT22;11773;52.570;13.052;2023-07-22T02:38:44;16.80;99.90
23207;DHT22;11773;52.570;13.052;2023-07-22T02:41:13;16.90;99.90
23207;DHT22;11773;52.570;13.052;2023-07-22T02:43:43;16.70;99.90
23207;DHT22;11773;52.570;13.052;2023-07-22T02:46:13;16.70;99.90
23207;DHT22;11773;52.570;13.052;2023-07-22T02:48:42;16.90;99.90
23207;DHT22;11773;52.570;13.052;2023-07-22T02:51:12;16.90;99.90
23207;DHT22;11773;52.570;13.052;2023-07-22T02:53:41;16.80;99.90
23207;DHT22;11773;52.570;13.052;2023-07-22T02:56:13;16.90;99.90
23207;DHT22;11773;52.570;13.052;2023-07-22T02:58:43;16.90;99.90
23207;DHT22;11773;52.570;13.052;2023-07-22T03:01:12;16.90;99.90
23207;DHT22;11773;52.570;13.052;2023-07-22T03:03:42;16.90;99.90
23207;DHT22;11773;52.570;13.052;2023-07-22T03:06:11;17.00;99.90
23207;DHT22;11773;52.570;13.052;2023-07-22T03:08:42;17.00;99.90
23207;DHT22;11773;52.570;13.052;2023-07-22T03:11:11;16.90;99.90
23207;DHT22;11773;52.570;13.052;2023-07-22T03:13:41;16.90;99.90
23207;DHT22;11773;52.570;13.052;2023-07-22T03:16:11;16.90;99.90
23207;DHT22;11773;52.570;13.052;2023-07-22T03:18:42;16.90;99.90
23207;DHT22;11773;52.570;13.052;2023-07-22T03:21:12;16.90;99.90
23207;DHT22;11773;52.570;13.052;2023-07-22T03:23:42;16.90;99.90
23207;DHT22;11773;52.570;13.052;2023-07-22T03:26:11;16.90;99.90
23207;DHT22;11773;52.570;13.052;2023-07-22T03:28:41;16.90;99.90
23207;DHT22;11773;52.570;13.052;2023-07-22T03:31:10;16.90;99.90
23207;DHT22;11773;52.570;13.052;2023-07-22T03:33:40;17.00;99.90
23207;DHT22;11773;52.570;13.052;2023-07-22T03:36:11;16.90;99.90
23207;DHT22;11773;52.570;13.052;2023-07-22T03:38:41;16.80;99.90
23207;DHT22;11773;52.570;13.052;2023-07-22T03:41:11;16.90;99.90
23207;DHT22;11773;52.570;13.052;2023-07-22T03:43:40;16.80;99.90
23207;DHT22;11773;52.570;13.052;2023-07-22T03:46:11;16.70;99.90
23207;DHT22;11773;52.570;13.052;2023-07-22T03:48:40;16.70;99.90
23207;DHT22;11773;52.570;13.052;2023-07-22T03:51:10;16.70;99.90
23207;DHT22;11773;52.570;13.052;2023-07-22T03:53:41;16.60;99.90
23207;DHT22;11773;52.570;13.052;2023-07-22T03:56:11;16.60;99.90
23207;DHT22;11773;52.570;13.052;2023-07-22T03:58:40;16.70;99.90
23207;DHT22;11773;52.570;13.052;2023-07-22T04:01:13;16.60;99.90
23207;DHT22;11773;52.570;13.052;2023-07-22T04:03:43;16.70;99.90
23207;DHT22;11773;52.570;13.052;2023-07-22T04:06:12;16.60;99.90
23207;DHT22;11773;52.570;13.052;2023-07-22T04:08:42;16.50;99.90
23207;DHT22;11773;52.570;13.052;2023-07-22T04:11:13;16.50;99.90
23207;DHT22;11773;52.570;13.052;2023-07-22T04:13:42;16.50;99.90
23207;DHT22;11773;52.570;13.052;2023-07-22T04:16:12;16.50;99.90
23207;DHT22;11773;52.570;13.052;2023-07-22T04:18:41;16.60;99.90
23207;DHT22;11773;52.570;13.052;2023-07-22T04:21:11;16.50;99.90
23207;DHT22;11773;52.570;13.052;2023-07-22T04:23:40;16.40;99.90
23207;DHT22;11773;52.570;13.052;2023-07-22T04:26:10;16.50;99.90
23207;DHT22;11773;52.570;13.052;2023-07-22T04:28:40;16.50;99.90
23207;DHT22;11773;52.570;13.052;2023-07-22T04:31:09;16.50;99.90
23207;DHT22;11773;52.570;13.052;2023-07-22T04:33:39;16.50;99.90
23207;DHT22;11773;52.570;13.052;2023-07-22T04:36:09;16.50;99.90
23207;DHT22;11773;52.570;13.052;2023-07-22T04:38:38;16.50;99.90
23207;DHT22;11773;52.570;13.052;2023-07-22T04:41:08;16.50;99.90
23207;DHT22;11773;52.570;13.052;2023-07-22T04:43:38;16.60;99.90
23207;DHT22;11773;52.570;13.052;2023-07-22T04:46:08;16.60;99.90
23207;DHT22;11773;52.570;13.052;2023-07-22T04:48:37;16.50;99.90
23207;DHT22;11773;52.570;13.052;2023-07-22T04:51:07;16.40;99.90
23207;DHT22;11773;52.570;13.052;2023-07-22T04:53:37;16.40;99.90
23207;DHT22;11773;52.570;13.052;2023-07-22T04:56:07;16.40;99.90
23207;DHT22;11773;52.570;13.052;2023-07-22T04:58:36;16.40;99.90
23207;DHT22;11773;52.570;13.052;2023-07-22T05:01:06;16.50;99.90
23207;DHT22;11773;52.570;13.052;2023-07-22T05:03:36;16.40;99.90
23207;DHT22;11773;52.570;13.052;2023-07-22T05:06:06;16.50;99.90
23207;DHT22;11773;52.570;13.052;2023-07-22T05:08:36;16.80;99.90
23207;DHT22;11773;52.570;13.052;2023-07-22T05:11:07;16.80;99.90
23207;DHT22;11773;52.570;13.052;2023-07-22T05:13:36;16.90;99.90
23207;DHT22;11773;52.570;13.052;2023-07-22T05:16:06;16.70;99.90
23207;DHT22;11773;52.570;13.052;2023-07-22T05:18:36;16.90;99.90
23207;DHT22;11773;52.570;13.052;2023-07-22T05:21:06;16.80;99.90
23207;DHT22;11773;52.570;13.052;2023-07-22T05:23:36;17.00;99.90
23207;DHT22;11773;52.570;13.052;2023-07-22T05:26:05;17.30;99.90
23207;DHT22;11773;52.570;13.052;2023-07-22T05:28:35;17.70;99.90
23207;DHT22;11773;52.570;13.052;2023-07-22T05:31:05;18.00;99.90
23207;DHT22;11773;52.570;13.052;2023-07-22T05:33:35;18.20;99.90
23207;DHT22;11773;52.570;13.052;2023-07-22T05:36:05;18.60;99.90
23207;DHT22;11773;52.570;13.052;2023-07-22T05:38:34;18.90;99.90
23207;DHT22;11773;52.570;13.052;2023-07-22T05:41:04;19.20;99.90
23207;DHT22;11773;52.570;13.052;2023-07-22T05:43:34;19.50;99.90
23207;DHT22;11773;52.570;13.052;2023-07-22T05:46:04;19.70;99.90
23207;DHT22;11773;52.570;13.052;2023-07-22T05:48:33;20.00;99.90
23207;DHT22;11773;52.570;13.052;2023-07-22T05:51:03;20.20;99.90
23207;DHT22;11773;52.570;13.052;2023-07-22T05:53:33;20.60;99.90
23207;DHT22;11773;52.570;13.052;2023-07-22T05:56:03;20.70;99.90
23207;DHT22;11773;52.570;13.052;2023-07-22T05:58:32;20.70;99.90
23207;DHT22;11773;52.570;13.052;2023-07-22T06:01:03;21.10;99.90
23207;DHT22;11773;52.570;13.052;2023-07-22T06:03:32;21.20;99.90
23207;DHT22;11773;52.570;13.052;2023-07-22T06:06:02;21.50;99.90
23207;DHT22;11773;52.570;13.052;2023-07-22T06:08:31;21.70;99.90
23207;DHT22;11773;52.570;13.052;2023-07-22T06:11:01;21.50;99.90
23207;DHT22;11773;52.570;13.052;2023-07-22T06:13:31;21.60;99.90
23207;DHT22;11773;52.570;13.052;2023-07-22T06:16:00;21.40;99.90
23207;DHT22;11773;52.570;13.052;2023-07-22T06:18:30;21.60;99.90
23207;DHT22;11773;52.570;13.052;2023-07-22T06:21:00;21.80;99.90
23207;DHT22;11773;52.570;13.052;2023-07-22T06:23:29;21.90;99.90
23207;DHT22;11773;52.570;13.052;2023-07-22T06:25:59;21.90;99.90
23207;DHT22;11773;52.570;13.052;2023-07-22T06:28:29;21.90;99.90
23207;DHT22;11773;52.570;13.052;2023-07-22T06:30:59;22.10;99.90
23207;DHT22;11773;52.570;13.052;2023-07-22T06:33:28;22.30;99.90
23207;DHT22;11773;52.570;13.052;2023-07-22T06:35:59;21.90;99.90
23207;DHT22;11773;52.570;13.052;2023-07-22T06:38:29;21.90;99.90
23207;DHT22;11773;52.570;13.052;2023-07-22T06:40:59;21.60;99.90
23207;DHT22;11773;52.570;13.052;2023-07-22T06:43:28;22.10;99.90
23207;DHT22;11773;52.570;13.052;2023-07-22T06:45:58;22.00;99.90
23207;DHT22;11773;52.570;13.052;2023-07-22T06:48:27;21.60;99.90
23207;DHT22;11773;52.570;13.052;2023-07-22T06:50:57;21.80;99.90
23207;DHT22;11773;52.570;13.052;2023-07-22T06:53:26;22.10;99.90
23207;DHT22;11773;52.570;13.052;2023-07-22T06:55:56;22.20;99.90
23207;DHT22;11773;52.570;13.052;2023-07-22T06:58:26;22.40;99.90
23207;DHT22;11773;52.570;13.052;2023-07-22T07:00:56;22.70;99.90
23207;DHT22;11773;52.570;13.052;2023-07-22T07:03:25;22.30;99.90
23207;DHT22;11773;52.570;13.052;2023-07-22T07:05:55;22.50;99.90
23207;DHT22;11773;52.570;13.052;2023-07-22T07:08:26;22.30;99.90
23207;DHT22;11773;52.570;13.052;2023-07-22T07:10:55;22.10;99.90
23207;DHT22;11773;52.570;13.052;2023-07-22T07:13:26;22.20;99.90
23207;DHT22;11773;52.570;13.052;2023-07-22T07:15:56;22.00;99.90
23207;DHT22;11773;52.570;13.052;2023-07-22T07:18:27;21.90;99.90
23207;DHT22;11773;52.570;13.052;2023-07-22T07:20:57;21.90;99.90
23207;DHT22;11773;52.570;13.052;2023-07-22T07:23:26;21.80;99.90
23207;DHT22;11773;52.570;13.052;2023-07-22T07:25:56;22.30;99.90
23207;DHT22;11773;52.570;13.052;2023-07-22T07:28:27;22.50;99.90
23207;DHT22;11773;52.570;13.052;2023-07-22T07:30:56;22.30;99.90
23207;DHT22;11773;52.570;13.052;2023-07-22T07:33:26;22.10;99.90
23207;DHT22;11773;52.570;13.052;2023-07-22T07:35:56;22.10;99.90
23207;DHT22;11773;52.570;13.052;2023-07-22T07:38:26;21.90;99.90
23207;DHT22;11773;52.570;13.052;2023-07-22T07:40:58;22.00;99.90
23207;DHT22;11773;52.570;13.052;2023-07-22T07:43:30;21.60;99.90
23207;DHT22;11773;52.570;13.052;2023-07-22T07:46:16;21.30;99.90
23207;DHT22;11773;52.570;13.052;2023-07-22T07:48:51;21.20;99.90
23207;DHT22;11773;52.570;13.052;2023-07-22T07:51:23;21.60;99.90
23207;DHT22;11773;52.570;13.052;2023-07-22T07:53:55;21.50;99.90
23207;DHT22;11773;52.570;13.052;2023-07-22T07:56:26;21.80;99.90
23207;DHT22;11773;52.570;13.052;2023-07-22T07:58:57;21.60;99.90
23207;DHT22;11773;52.570;13.052;2023-07-22T08:01:26;21.70;99.90
23207;DHT22;11773;52.570;13.052;2023-07-22T08:03:56;21.80;99.90
23207;DHT22;11773;52.570;13.052;2023-07-22T08:06:26;21.60;99.90
23207;DHT22;11773;52.570;13.052;2023-07-22T08:08:56;22.00;99.90
23207;DHT22;11773;52.570;13.052;2023-07-22T08:11:27;22.30;99.90
23207;DHT22;11773;52.570;13.052;2023-07-22T08:13:58;22.10;99.90
23207;DHT22;11773;52.570;13.052;2023-07-22T08:16:27;22.40;99.90
23207;DHT22;11773;52.570;13.052;2023-07-22T08:18:58;21.90;99.90
23207;DHT22;11773;52.570;13.052;2023-07-22T08:21:27;22.30;99.90
23207;DHT22;11773;52.570;13.052;2023-07-22T08:23:57;22.60;99.90
23207;DHT22;11773;52.570;13.052;2023-07-22T08:26:27;22.80;99.90
23207;DHT22;11773;52.570;13.052;2023-07-22T08:28:58;22.70;99.90
23207;DHT22;11773;52.570;13.052;2023-07-22T08:31:27;22.40;99.90
23207;DHT22;11773;52.570;13.052;2023-07-22T08:33:58;22.50;99.90
23207;DHT22;11773;52.570;13.052;2023-07-22T08:36:27;22.50;99.90
23207;DHT22;11773;52.570;13.052;2023-07-22T08:38:57;22.10;99.90
23207;DHT22;11773;52.570;13.052;2023-07-22T08:41:28;21.80;99.90
23207;DHT22;11773;52.570;13.052;2023-07-22T08:44:00;21.80;99.90
23207;DHT22;11773;52.570;13.052;2023-07-22T08:46:32;21.80;99.90
23207;DHT22;11773;52.570;13.052;2023-07-22T08:49:05;21.90;99.90
23207;DHT22;11773;52.570;13.052;2023-07-22T08:51:36;21.50;99.90
23207;DHT22;11773;52.570;13.052;2023-07-22T08:54:09;21.60;99.90
23207;DHT22;11773;52.570;13.052;2023-07-22T08:56:39;22.10;99.90
23207;DHT22;11773;52.570;13.052;2023-07-22T08:59:10;22.30;99.90
23207;DHT22;11773;52.570;13.052;2023-07-22T09:01:42;22.30;99.90
23207;DHT22;11773;52.570;13.052;2023-07-22T09:04:12;22.10;99.90
23207;DHT22;11773;52.570;13.052;2023-07-22T09:06:42;22.00;99.90
23207;DHT22;11773;52.570;13.052;2023-07-22T09:09:13;22.30;99.90
23207;DHT22;11773;52.570;13.052;2023-07-22T09:11:43;22.50;99.90
23207;DHT22;11773;52.570;13.052;2023-07-22T09:14:17;22.20;99.90
23207;DHT22;11773;52.570;13.052;2023-07-22T09:16:50;22.20;99.90
23207;DHT22;11773;52.570;13.052;2023-07-22T09:19:19;22.20;99.90
23207;DHT22;11773;52.570;13.052;2023-07-22T09:21:49;21.90;99.90
23207;DHT22;11773;52.570;13.052;2023-07-22T09:24:27;22.20;99.90
23207;DHT22;11773;52.570;13.052;2023-07-22T09:26:57;22.50;99.90
23207;DHT22;11773;52.570;13.052;2023-07-22T09:29:40;23.00;99.90
23207;DHT22;11773;52.570;13.052;2023-07-22T09:32:08;22.80;99.90
23207;DHT22;11773;52.570;13.052;2023-07-22T09:34:37;23.00;99.90
23207;DHT22;11773;52.570;13.052;2023-07-22T09:37:09;22.50;99.90
23207;DHT22;11773;52.570;13.052;2023-07-22T09:39:39;22.40;99.90
23207;DHT22;11773;52.570;13.052;2023-07-22T09:42:23;22.60;99.90
23207;DHT22;11773;52.570;13.052;2023-07-22T09:44:48;22.50;99.90
23207;DHT22;11773;52.570;13.052;2023-07-22T09:47:18;22.60;99.90
23207;DHT22;11773;52.570;13.052;2023-07-22T09:49:50;22.50;99.90
23207;DHT22;11773;52.570;13.052;2023-07-22T09:52:19;22.40;99.90
23207;DHT22;11773;52.570;13.052;2023-07-22T09:54:50;22.40;99.90
23207;DHT22;11773;52.570;13.052;2023-07-22T09:57:21;22.10;99.90
23207;DHT22;11773;52.570;13.052;2023-07-22T09:59:53;22.10;99.90
23207;DHT22;11773;52.570;13.052;2023-07-22T10:02:23;22.00;99.90
23207;DHT22;11773;52.570;13.052;2023-07-22T10:04:55;22.40;99.90
23207;DHT22;11773;52.570;13.052;2023-07-22T10:07:28;22.10;99.90
23207;DHT22;11773;52.570;13.052;2023-07-22T10:10:01;22.20;99.90
23207;DHT22;11773;52.570;13.052;2023-07-22T10:12:31;22.30;99.90
23207;DHT22;11773;52.570;13.052;2023-07-22T10:15:02;22.40;99.90
23207;DHT22;11773;52.570;13.052;2023-07-22T10:17:34;22.60;99.90
23207;DHT22;11773;52.570;13.052;2023-07-22T10:20:04;22.80;99.90
23207;DHT22;11773;52.570;13.052;2023-07-22T10:22:36;23.20;99.90
23207;DHT22;11773;52.570;13.052;2023-07-22T10:25:06;23.30;99.90
23207;DHT22;11773;52.570;13.052;2023-07-22T10:27:36;23.30;99.90
23207;DHT22;11773;52.570;13.052;2023-07-22T10:30:13;23.50;99.90
23207;DHT22;11773;52.570;13.052;2023-07-22T10:32:46;23.50;99.90
23207;DHT22;11773;52.570;13.052;2023-07-22T10:38:25;23.50;99.90
23207;DHT22;11773;52.570;13.052;2023-07-22T10:40:54;23.30;99.90
23207;DHT22;11773;52.570;13.052;2023-07-22T10:43:32;23.30;99.90
23207;DHT22;11773;52.570;13.052;2023-07-22T10:46:13;23.60;99.90
23207;DHT22;11773;52.570;13.052;2023-07-22T10:48:42;23.70;99.90
23207;DHT22;11773;52.570;13.052;2023-07-22T10:51:14;24.00;99.90
23207;DHT22;11773;52.570;13.052;2023-07-22T10:53:47;23.70;99.90
23207;DHT22;11773;52.570;13.052;2023-07-22T10:56:22;23.30;99.90
23207;DHT22;11773;52.570;13.052;2023-07-22T10:58:56;23.30;99.90
23207;DHT22;11773;52.570;13.052;2023-07-22T11:07:05;23.20;99.90
23207;DHT22;11773;52.570;13.052;2023-07-22T11:09:35;23.20;99.90
23207;DHT22;11773;52.570;13.052;2023-07-22T11:12:14;23.30;99.90
23207;DHT22;11773;52.570;13.052;2023-07-22T11:14:49;23.60;99.90
23207;DHT22;11773;52.570;13.052;2023-07-22T11:17:30;23.70;99.90
23207;DHT22;11773;52.570;13.052;2023-07-22T11:20:02;23.80;99.90
23207;DHT22;11773;52.570;13.052;2023-07-22T11:22:32;23.70;99.90
23207;DHT22;11773;52.570;13.052;2023-07-22T11:25:03;23.60;99.90
23207;DHT22;11773;52.570;13.052;2023-07-22T11:27:33;23.70;99.90
23207;DHT22;11773;52.570;13.052;2023-07-22T11:30:04;23.60;99.90
23207;DHT22;11773;52.570;13.052;2023-07-22T11:32:34;23.40;99.90
23207;DHT22;11773;52.570;13.052;2023-07-22T11:35:08;23.60;99.90
23207;DHT22;11773;52.570;13.052;2023-07-22T11:37:38;23.90;99.90
23207;DHT22;11773;52.570;13.052;2023-07-22T11:40:15;23.60;99.90
23207;DHT22;11773;52.570;13.052;2023-07-22T11:42:42;23.60;99.90
23207;DHT22;11773;52.570;13.052;2023-07-22T11:45:13;23.90;99.90
23207;DHT22;11773;52.570;13.052;2023-07-22T11:47:43;24.20;99.90
23207;DHT22;11773;52.570;13.052;2023-07-22T11:50:12;24.20;99.90
23207;DHT22;11773;52.570;13.052;2023-07-22T11:52:42;24.00;99.90
23207;DHT22;11773;52.570;13.052;2023-07-22T11:55:13;24.10;99.90
23207;DHT22;11773;52.570;13.052;2023-07-22T11:57:51;24.10;99.90
23207;DHT22;11773;52.570;13.052;2023-07-22T12:00:23;24.60;99.90
23207;DHT22;11773;52.570;13.052;2023-07-22T12:02:52;24.60;99.90
23207;DHT22;11773;52.570;13.052;2023-07-22T12:05:24;24.60;99.90
23207;DHT22;11773;52.570;13.052;2023-07-22T12:07:53;24.40;99.90
23207;DHT22;11773;52.570;13.052;2023-07-22T12:10:24;24.60;99.90
23207;DHT22;11773;52.570;13.052;2023-07-22T12:12:54;24.70;99.90
23207;DHT22;11773;52.570;13.052;2023-07-22T12:15:25;24.50;99.90
23207;DHT22;11773;52.570;13.052;2023-07-22T12:18:00;24.30;99.90
23207;DHT22;11773;52.570;13.052;2023-07-22T12:20:31;24.30;99.90
23207;DHT22;11773;52.570;13.052;2023-07-22T12:23:06;24.10;99.90
23207;DHT22;11773;52.570;13.052;2023-07-22T12:25:36;24.20;99.90
23207;DHT22;11773;52.570;13.052;2023-07-22T12:28:06;23.80;99.90
23207;DHT22;11773;52.570;13.052;2023-07-22T12:30:37;23.90;99.90
23207;DHT22;11773;52.570;13.052;2023-07-22T12:33:07;23.90;99.90
23207;DHT22;11773;52.570;13.052;2023-07-22T12:35:37;24.10;99.90
23207;DHT22;11773;52.570;13.052;2023-07-22T12:38:07;24.30;99.90
23207;DHT22;11773;52.570;13.052;2023-07-22T12:40:37;24.40;99.90
23207;DHT22;11773;52.570;13.052;2023-07-22T12:43:07;24.20;99.90
23207;DHT22;11773;52.570;13.052;2023-07-22T12:45:37;24.10;99.90
23207;DHT22;11773;52.570;13.052;2023-07-22T12:48:06;24.30;99.90
23207;DHT22;11773;52.570;13.052;2023-07-22T12:50:36;24.40;99.90
23207;DHT22;11773;52.570;13.052;2023-07-22T12:53:06;24.40;99.90
23207;DHT22;11773;52.570;13.052;2023-07-22T12:55:36;24.40;99.90
23207;DHT22;11773;52.570;13.052;2023-07-22T12:58:06;24.40;99.90
23207;DHT22;11773;52.570;13.052;2023-07-22T13:00:35;24.60;99.90
23207;DHT22;11773;52.570;13.052;2023-07-22T13:03:05;24.70;99.90
23207;DHT22;11773;52.570;13.052;2023-07-22T13:05:34;24.80;99.90
23207;DHT22;11773;52.570;13.052;2023-07-22T13:08:04;24.90;99.90
23207;DHT22;11773;52.570;13.052;2023-07-22T13:10:34;24.90;99.90
23207;DHT22;11773;52.570;13.052;2023-07-22T13:13:05;24.40;99.90
23207;DHT22;11773;52.570;13.052;2023-07-22T13:15:35;24.60;99.90
23207;DHT22;11773;52.570;13.052;2023-07-22T13:18:05;24.50;99.90
23207;DHT22;11773;52.570;13.052;2023-07-22T13:20:35;24.40;99.90
23207;DHT22;11773;52.570;13.052;2023-07-22T13:23:04;24.00;99.90
23207;DHT22;11773;52.570;13.052;2023-07-22T13:25:34;24.10;99.90
23207;DHT22;11773;52.570;13.052;2023-07-22T13:28:04;24.10;99.90
23207;DHT22;11773;52.570;13.052;2023-07-22T13:30:34;24.10;99.90
23207;DHT22;11773;52.570;13.052;2023-07-22T13:33:03;23.90;99.90
23207;DHT22;11773;52.570;13.052;2023-07-22T13:35:33;24.00;99.90
23207;DHT22;11773;52.570;13.052;2023-07-22T13:38:03;23.70;99.90
23207;DHT22;11773;52.570;13.052;2023-07-22T13:40:32;23.80;99.90
23207;DHT22;11773;52.570;13.052;2023-07-22T13:43:02;23.70;99.90
23207;DHT22;11773;52.570;13.052;2023-07-22T13:45:32;23.70;99.90
23207;DHT22;11773;52.570;13.052;2023-07-22T13:48:02;23.70;99.90
23207;DHT22;11773;52.570;13.052;2023-07-22T13:50:32;23.50;99.90
23207;DHT22;11773;52.570;13.052;2023-07-22T13:53:03;23.60;99.90
23207;DHT22;11773;52.570;13.052;2023-07-22T13:55:33;23.60;99.90
23207;DHT22;11773;52.570;13.052;2023-07-22T13:58:02;23.60;99.90
23207;DHT22;11773;52.570;13.052;2023-07-22T14:00:32;23.70;99.90
23207;DHT22;11773;52.570;13.052;2023-07-22T14:03:03;23.50;99.90
23207;DHT22;11773;52.570;13.052;2023-07-22T14:05:32;23.40;99.90
23207;DHT22;11773;52.570;13.052;2023-07-22T14:08:02;23.60;99.90
23207;DHT22;11773;52.570;13.052;2023-07-22T14:10:32;23.50;99.90
23207;DHT22;11773;52.570;13.052;2023-07-22T14:13:02;23.90;99.90
23207;DHT22;11773;52.570;13.052;2023-07-22T14:15:31;24.10;99.90
23207;DHT22;11773;52.570;13.052;2023-07-22T14:18:01;23.90;99.90
23207;DHT22;11773;52.570;13.052;2023-07-22T14:20:31;24.00;99.90
23207;DHT22;11773;52.570;13.052;2023-07-22T14:23:01;24.10;99.90
23207;DHT22;11773;52.570;13.052;2023-07-22T14:25:32;23.90;99.90
23207;DHT22;11773;52.570;13.052;2023-07-22T14:28:02;23.90;99.90
23207;DHT22;11773;52.570;13.052;2023-07-22T14:30:32;23.90;99.90
23207;DHT22;11773;52.570;13.052;2023-07-22T14:33:01;23.80;99.90
23207;DHT22;11773;52.570;13.052;2023-07-22T14:35:31;24.00;99.90
23207;DHT22;11773;52.570;13.052;2023-07-22T14:38:02;23.70;99.90
23207;DHT22;11773;52.570;13.052;2023-07-22T14:40:31;23.60;99.90
23207;DHT22;11773;52.570;13.052;2023-07-22T14:43:01;23.70;99.90
23207;DHT22;11773;52.570;13.052;2023-07-22T14:45:32;23.70;99.90
23207;DHT22;11773;52.570;13.052;2023-07-22T14:48:02;23.70;99.90
23207;DHT22;11773;52.570;13.052;2023-07-22T14:50:31;23.80;99.90
23207;DHT22;11773;52.570;13.052;2023-07-22T14:53:01;23.70;99.90
23207;DHT22;11773;52.570;13.052;2023-07-22T14:55:31;23.80;99.90
23207;DHT22;11773;52.570;13.052;2023-07-22T14:58:01;23.70;99.90
23207;DHT22;11773;52.570;13.052;2023-07-22T15:00:30;23.70;99.90
23207;DHT22;11773;52.570;13.052;2023-07-22T15:03:00;23.70;99.90
23207;DHT22;11773;52.570;13.052;2023-07-22T15:05:30;23.70;99.90
23207;DHT22;11773;52.570;13.052;2023-07-22T15:08:00;23.80;99.90
23207;DHT22;11773;52.570;13.052;2023-07-22T15:10:30;23.90;99.90
23207;DHT22;11773;52.570;13.052;2023-07-22T15:12:59;23.70;99.90
23207;DHT22;11773;52.570;13.052;2023-07-22T15:15:30;23.80;99.90
23207;DHT22;11773;52.570;13.052;2023-07-22T15:18:00;23.90;99.90
23207;DHT22;11773;52.570;13.052;2023-07-22T15:20:30;23.80;99.90
23207;DHT22;11773;52.570;13.052;2023-07-22T15:22:59;23.70;99.90
23207;DHT22;11773;52.570;13.052;2023-07-22T15:25:29;23.80;99.90
23207;DHT22;11773;52.570;13.052;2023-07-22T15:27:58;23.90;99.90
23207;DHT22;11773;52.570;13.052;2023-07-22T15:30:28;23.90;99.90
23207;DHT22;11773;52.570;13.052;2023-07-22T15:32:57;23.80;99.90
23207;DHT22;11773;52.570;13.052;2023-07-22T15:35:27;23.80;99.90
23207;DHT22;11773;52.570;13.052;2023-07-22T15:37:57;23.70;99.90
23207;DHT22;11773;52.570;13.052;2023-07-22T15:40:26;23.60;99.90
23207;DHT22;11773;52.570;13.052;2023-07-22T15:42:56;23.60;99.90